createdAt,value
2022-11-20T00:01:50.795Z,43.98
2022-11-20T00:04:17.192Z,45.09
2022-11-20T00:06:43.563Z,43.66
2022-11-20T00:09:09.931Z,44.47
2022-11-20T00:11:36.268Z,45.05
2022-11-20T00:14:02.586Z,45.49
2022-11-20T00:16:28.922Z,45.32
2022-11-20T00:18:55.251Z,44.80
2022-11-20T00:21:21.990Z,44.64
2022-11-20T00:23:48.559Z,43.95
2022-11-20T00:26:14.879Z,43.56
2022-11-20T00:28:41.241Z,43.63
2022-11-20T00:31:07.570Z,43.64
2022-11-20T00:33:33.933Z,43.79
2022-11-20T00:36:00.262Z,43.32
2022-11-20T00:38:26.595Z,43.48
2022-11-20T00:40:54.809Z,43.50
2022-11-20T00:43:21.214Z,43.82
2022-11-20T00:45:47.584Z,43.39
2022-11-20T00:48:13.964Z,43.68
2022-11-20T00:50:40.302Z,44.89
2022-11-20T00:53:06.610Z,46.21
2022-11-20T00:55:32.974Z,45.58
2022-11-20T00:58:02.487Z,45.95
2022-11-20T01:00:30.824Z,45.31
2022-11-20T01:02:57.191Z,44.54
2022-11-20T01:05:23.564Z,44.01
2022-11-20T01:07:49.906Z,44.64
2022-11-20T01:10:16.230Z,44.48
2022-11-20T01:12:42.592Z,43.65
2022-11-20T01:15:08.923Z,42.36
2022-11-20T01:17:35.394Z,43.66
2022-11-20T01:20:01.727Z,42.06
2022-11-20T01:22:28.085Z,44.73
2022-11-20T01:24:54.421Z,46.37
2022-11-20T01:27:20.749Z,46.98
2022-11-20T01:29:47.079Z,47.69
2022-11-20T01:32:13.411Z,48.49
2022-11-20T01:34:39.832Z,49.57
2022-11-20T01:37:06.215Z,47.14
2022-11-20T01:39:32.544Z,45.47
2022-11-20T01:41:58.874Z,47.67
2022-11-20T01:44:25.249Z,47.44
2022-11-20T01:46:51.582Z,48.79
2022-11-20T01:49:18.009Z,49.06
2022-11-20T01:51:44.383Z,49.73
2022-11-20T01:54:10.751Z,48.41
2022-11-20T01:56:37.125Z,49.74
2022-11-20T01:59:03.464Z,48.06
2022-11-20T02:01:29.868Z,49.19
2022-11-20T02:03:56.264Z,49.39
2022-11-20T02:06:22.621Z,49.75
2022-11-20T02:08:48.984Z,49.15
2022-11-20T02:11:15.357Z,48.87
2022-11-20T02:13:41.690Z,49.36
2022-11-20T02:16:08.009Z,50.52
2022-11-20T02:18:34.369Z,50.25
2022-11-20T02:21:00.700Z,49.07
2022-11-20T02:23:27.056Z,48.11
2022-11-20T02:25:53.430Z,49.02
2022-11-20T02:28:19.804Z,49.47
2022-11-20T02:30:46.187Z,48.66
2022-11-20T02:33:12.562Z,49.09
2022-11-20T02:35:38.904Z,49.50
2022-11-20T02:38:05.236Z,49.41
2022-11-20T02:40:31.568Z,50.28
2022-11-20T02:42:57.940Z,50.54
2022-11-20T02:45:24.284Z,50.33
2022-11-20T02:47:50.635Z,50.23
2022-11-20T02:50:16.966Z,51.28
2022-11-20T02:52:43.389Z,52.29
2022-11-20T02:55:09.739Z,51.35
2022-11-20T02:57:36.100Z,50.83
2022-11-20T03:00:02.425Z,49.93
2022-11-20T03:02:28.805Z,47.78
2022-11-20T03:04:55.142Z,48.79
2022-11-20T03:07:21.544Z,48.13
2022-11-20T03:09:47.945Z,46.14
2022-11-20T03:12:14.288Z,45.57
2022-11-20T03:14:40.652Z,44.89
2022-11-20T03:17:06.988Z,44.58
2022-11-20T03:19:33.362Z,44.59
2022-11-20T03:21:59.744Z,45.19
2022-11-20T03:24:26.114Z,44.60
2022-11-20T03:26:52.450Z,45.74
2022-11-20T03:29:19.163Z,44.43
2022-11-20T03:31:45.755Z,43.90
2022-11-20T03:34:12.079Z,44.12
2022-11-20T03:36:38.400Z,46.10
2022-11-20T03:39:04.764Z,46.69
2022-11-20T03:41:31.129Z,48.35
2022-11-20T03:43:57.512Z,47.06
2022-11-20T03:46:23.847Z,46.01
2022-11-20T03:48:51.972Z,46.50
2022-11-20T03:51:18.673Z,47.64
2022-11-20T03:53:45.004Z,49.10
2022-11-20T03:56:11.326Z,48.69
2022-11-20T03:58:37.691Z,47.26
2022-11-20T04:01:04.020Z,47.52
2022-11-20T04:03:30.389Z,47.51
2022-11-20T04:05:56.762Z,47.69
2022-11-20T04:08:23.102Z,46.82
2022-11-20T04:10:49.462Z,48.08
2022-11-20T04:13:15.784Z,47.52
2022-11-20T04:15:42.108Z,47.81
2022-11-20T04:18:08.431Z,49.97
2022-11-20T04:20:34.737Z,51.04
2022-11-20T04:23:01.106Z,51.75
2022-11-20T04:25:27.438Z,52.17
2022-11-20T04:27:53.764Z,51.92
2022-11-20T04:30:20.120Z,50.66
2022-11-20T04:32:46.450Z,52.01
2022-11-20T04:35:12.813Z,52.21
2022-11-20T04:37:39.217Z,50.94
2022-11-20T04:40:05.588Z,50.82
2022-11-20T04:42:31.963Z,51.34
2022-11-20T04:44:58.336Z,52.58
2022-11-20T04:47:24.669Z,52.05
2022-11-20T04:49:51.053Z,52.75
2022-11-20T04:52:17.386Z,51.53
2022-11-20T04:54:43.755Z,50.81
2022-11-20T04:57:14.240Z,50.49
2022-11-20T04:59:41.060Z,48.88
2022-11-20T05:02:07.663Z,50.60
2022-11-20T05:04:33.987Z,51.73
2022-11-20T05:07:00.416Z,49.53
2022-11-20T05:09:26.789Z,49.66
2022-11-20T05:11:53.155Z,50.26
2022-11-20T05:14:19.536Z,49.43
2022-11-20T05:16:46.030Z,49.65
2022-11-20T05:19:12.411Z,47.52
2022-11-20T05:21:38.779Z,48.24
2022-11-20T05:24:05.105Z,47.40
2022-11-20T05:26:31.433Z,45.97
2022-11-20T05:28:57.779Z,45.49
2022-11-20T05:31:27.530Z,45.90
2022-11-20T05:33:54.254Z,46.38
2022-11-20T05:36:20.636Z,46.82
2022-11-20T05:38:50.450Z,46.78
2022-11-20T05:41:17.314Z,47.14
2022-11-20T05:43:43.634Z,48.29
2022-11-20T05:46:10.028Z,48.57
2022-11-20T05:48:36.372Z,49.10
2022-11-20T05:51:02.755Z,49.73
2022-11-20T05:53:29.122Z,50.37
2022-11-20T05:55:55.454Z,50.45
2022-11-20T05:58:21.785Z,50.32
2022-11-20T06:00:48.107Z,50.52
2022-11-20T06:03:14.436Z,49.86
2022-11-20T06:05:40.763Z,49.28
2022-11-20T06:08:07.088Z,49.40
2022-11-20T06:10:33.459Z,48.93
2022-11-20T06:12:59.793Z,48.84
2022-11-20T06:15:26.161Z,49.57
2022-11-20T06:17:52.529Z,49.19
2022-11-20T06:20:18.911Z,49.57
2022-11-20T06:22:45.294Z,49.27
2022-11-20T06:25:11.632Z,48.52
2022-11-20T06:27:37.960Z,49.06
2022-11-20T06:30:04.274Z,49.94
2022-11-20T06:32:30.649Z,50.11
2022-11-20T06:34:56.979Z,50.23
2022-11-20T06:37:23.366Z,49.06
2022-11-20T06:39:49.713Z,48.15
2022-11-20T06:42:16.043Z,48.40
2022-11-20T06:44:42.370Z,47.58
2022-11-20T06:47:08.699Z,48.11
2022-11-20T06:49:35.027Z,46.60
2022-11-20T06:52:01.397Z,46.78
2022-11-20T06:54:27.741Z,45.38
2022-11-20T06:56:54.104Z,45.14
2022-11-20T06:59:20.792Z,45.61
2022-11-20T07:01:47.401Z,44.82
2022-11-20T07:04:13.720Z,44.08
2022-11-20T07:06:40.045Z,43.87
2022-11-20T07:09:11.386Z,44.44
2022-11-20T07:11:39.038Z,44.94
2022-11-20T07:14:05.416Z,44.26
2022-11-20T07:16:31.785Z,44.56
2022-11-20T07:18:58.120Z,44.02
2022-11-20T07:21:24.496Z,44.36
2022-11-20T07:23:50.834Z,43.85
2022-11-20T07:26:17.161Z,46.50
2022-11-20T07:28:43.523Z,46.83
2022-11-20T07:31:12.405Z,46.90
2022-11-20T07:33:42.330Z,47.47
2022-11-20T07:36:08.681Z,47.78
2022-11-20T07:38:35.053Z,48.53
2022-11-20T07:41:01.443Z,49.12
2022-11-20T07:43:27.815Z,48.00
2022-11-20T07:45:54.204Z,47.87
2022-11-20T07:48:20.555Z,48.39
2022-11-20T07:50:46.939Z,48.89
2022-11-20T07:53:13.285Z,46.66
2022-11-20T07:55:39.646Z,46.86
2022-11-20T07:58:05.983Z,46.30
2022-11-20T08:00:32.374Z,45.89
2022-11-20T08:02:58.766Z,48.00
2022-11-20T08:05:25.150Z,47.94
2022-11-20T08:07:51.484Z,48.19
2022-11-20T08:10:17.869Z,47.55
2022-11-20T08:12:44.257Z,45.91
2022-11-20T08:15:13.248Z,45.33
2022-11-20T08:17:39.921Z,47.21
2022-11-20T08:20:06.317Z,47.56
2022-11-20T08:22:32.644Z,45.82
2022-11-20T08:24:58.986Z,45.40
2022-11-20T08:27:25.359Z,45.09
2022-11-20T08:29:51.738Z,44.71
2022-11-20T08:32:18.084Z,46.34
2022-11-20T08:34:44.410Z,43.95
2022-11-20T08:37:10.734Z,44.68
2022-11-20T08:39:37.067Z,44.20
2022-11-20T08:42:03.440Z,42.03
2022-11-20T08:44:29.843Z,42.11
2022-11-20T08:46:56.187Z,43.20
2022-11-20T08:49:22.689Z,43.33
2022-11-20T08:51:49.185Z,44.00
2022-11-20T08:54:15.522Z,44.00
2022-11-20T08:56:41.912Z,43.32
2022-11-20T08:59:43.869Z,43.63
2022-11-20T09:01:54.590Z,44.39
2022-11-20T09:04:20.909Z,45.55
2022-11-20T09:06:47.261Z,45.37
2022-11-20T09:09:13.632Z,45.18
2022-11-20T09:11:40.016Z,45.14
2022-11-20T09:14:06.354Z,45.34
2022-11-20T09:16:32.691Z,44.64
2022-11-20T09:19:20.619Z,44.51
2022-11-20T09:21:45.444Z,43.96
2022-11-20T09:24:11.834Z,44.72
2022-11-20T09:26:38.210Z,43.88
2022-11-20T09:29:04.616Z,45.33
2022-11-20T09:31:30.953Z,44.84
2022-11-20T09:33:57.322Z,44.23
2022-11-20T09:36:23.653Z,43.77
2022-11-20T09:38:50.020Z,45.38
2022-11-20T09:41:16.361Z,45.41
2022-11-20T09:43:43.626Z,44.50
2022-11-20T09:46:10.035Z,44.40
2022-11-20T09:48:36.409Z,43.85
2022-11-20T09:51:02.790Z,43.28
2022-11-20T09:53:29.141Z,44.18
2022-11-20T09:55:55.512Z,46.14
2022-11-20T09:58:21.895Z,45.34
2022-11-20T10:00:48.346Z,46.14
2022-11-20T10:03:14.790Z,47.30
2022-11-20T10:05:41.183Z,47.17
2022-11-20T10:08:07.640Z,47.52
2022-11-20T10:10:34.023Z,46.27
2022-11-20T10:13:00.355Z,46.83
2022-11-20T10:15:26.689Z,45.66
2022-11-20T10:17:53.015Z,45.08
2022-11-20T10:20:19.409Z,44.90
2022-11-20T10:22:45.754Z,45.26
2022-11-20T10:25:12.106Z,45.77
2022-11-20T10:27:38.450Z,44.70
2022-11-20T10:30:04.831Z,44.78
2022-11-20T10:32:31.220Z,44.67
2022-11-20T10:34:57.607Z,43.11
2022-11-20T10:37:23.945Z,43.71
2022-11-20T10:39:50.317Z,43.18
2022-11-20T10:42:16.672Z,43.24
2022-11-20T10:44:43.064Z,42.93
2022-11-20T10:47:09.398Z,42.73
2022-11-20T10:49:36.106Z,42.63
2022-11-20T10:52:02.533Z,41.94
2022-11-20T10:54:28.930Z,41.91
2022-11-20T10:56:55.313Z,40.80
2022-11-20T10:59:21.869Z,40.97
2022-11-20T11:01:48.438Z,40.52
2022-11-20T11:04:14.778Z,40.28
2022-11-20T11:06:41.146Z,40.84
2022-11-20T11:09:07.520Z,41.66
2022-11-20T11:11:33.898Z,41.48
2022-11-20T11:14:00.227Z,41.81
2022-11-20T11:16:26.596Z,39.93
2022-11-20T11:18:52.983Z,40.67
2022-11-20T11:21:19.435Z,40.46
2022-11-20T11:23:45.811Z,40.20
2022-11-20T11:26:12.155Z,39.28
2022-11-20T11:28:38.470Z,39.86
2022-11-20T11:31:04.788Z,39.24
2022-11-20T11:33:31.161Z,39.71
2022-11-20T11:35:57.499Z,39.77
2022-11-20T11:38:23.871Z,40.51
2022-11-20T11:40:50.211Z,39.99
2022-11-20T11:43:16.537Z,39.11
2022-11-20T11:45:42.863Z,38.10
2022-11-20T11:48:09.201Z,39.38
2022-11-20T11:50:35.547Z,39.23
2022-11-20T11:53:01.875Z,39.91
2022-11-20T11:55:28.249Z,38.62
2022-11-20T11:57:54.600Z,40.37
2022-11-20T12:00:20.977Z,39.39
2022-11-20T12:02:47.330Z,39.04
2022-11-20T12:05:13.691Z,39.40
2022-11-20T12:07:46.777Z,39.00
2022-11-20T12:10:13.868Z,39.68
2022-11-20T12:12:40.246Z,37.08
2022-11-20T12:15:06.588Z,37.42
2022-11-20T12:17:32.953Z,36.27
2022-11-20T12:19:59.295Z,37.44
2022-11-20T12:22:25.658Z,36.73
2022-11-20T12:24:52.114Z,36.20
2022-11-20T12:27:18.486Z,38.07
2022-11-20T12:29:44.862Z,37.71
2022-11-20T12:32:11.286Z,37.70
2022-11-20T12:34:37.653Z,36.74
2022-11-20T12:37:04.010Z,37.51
2022-11-20T12:39:30.332Z,37.64
2022-11-20T12:41:56.650Z,37.79
2022-11-20T12:44:22.971Z,38.21
2022-11-20T12:46:49.340Z,36.95
2022-11-20T12:49:15.712Z,36.50
2022-11-20T12:51:42.165Z,36.89
2022-11-20T12:54:08.549Z,37.09
2022-11-20T12:56:34.886Z,37.88
2022-11-20T12:59:01.208Z,37.63
2022-11-20T13:01:27.592Z,37.53
2022-11-20T13:03:53.969Z,36.49
2022-11-20T13:06:20.312Z,37.39
2022-11-20T13:08:46.633Z,38.25
2022-11-20T13:11:12.997Z,38.36
2022-11-20T13:13:39.374Z,39.00
2022-11-20T13:16:05.764Z,39.81
2022-11-20T13:18:32.088Z,39.20
2022-11-20T13:20:58.410Z,39.27
2022-11-20T13:23:24.726Z,38.36
2022-11-20T13:25:51.056Z,37.97
2022-11-20T13:28:17.433Z,38.89
2022-11-20T13:30:43.767Z,38.25
2022-11-20T13:33:10.129Z,38.05
2022-11-20T13:35:36.457Z,37.31
2022-11-20T13:38:02.824Z,37.61
2022-11-20T13:40:29.162Z,38.14
2022-11-20T13:42:55.481Z,37.13
2022-11-20T13:45:21.795Z,38.04
2022-11-20T13:47:48.157Z,37.22
2022-11-20T13:50:14.485Z,38.00
2022-11-20T13:52:40.867Z,36.27
2022-11-20T13:55:07.249Z,36.65
2022-11-20T13:57:33.597Z,36.90
2022-11-20T13:59:59.968Z,36.58
2022-11-20T14:02:26.376Z,36.77
2022-11-20T14:04:52.757Z,35.93
2022-11-20T14:07:19.224Z,36.68
2022-11-20T14:09:45.630Z,37.04
2022-11-20T14:12:11.955Z,36.13
2022-11-20T14:14:38.269Z,36.78
2022-11-20T14:17:04.610Z,36.69
2022-11-20T14:19:30.922Z,36.52
2022-11-20T14:21:57.247Z,36.30
2022-11-20T14:24:23.978Z,36.98
2022-11-20T14:26:50.485Z,37.81
2022-11-20T14:29:16.862Z,36.98
2022-11-20T14:31:43.201Z,37.03
2022-11-20T14:34:09.522Z,37.27
2022-11-20T14:36:35.885Z,37.36
2022-11-20T14:39:02.262Z,38.29
2022-11-20T14:41:28.589Z,38.50
2022-11-20T14:43:55.020Z,39.10
2022-11-20T14:46:21.371Z,38.15
2022-11-20T14:48:47.697Z,37.77
2022-11-20T14:51:14.078Z,37.81
2022-11-20T14:53:40.462Z,39.31
2022-11-20T14:56:06.831Z,38.21
2022-11-20T14:58:33.207Z,38.87
2022-11-20T15:00:59.588Z,38.74
2022-11-20T15:03:31.690Z,38.55
2022-11-20T15:05:58.201Z,39.38
2022-11-20T15:08:24.565Z,39.61
2022-11-20T15:10:50.912Z,39.20
2022-11-20T15:13:17.261Z,39.64
2022-11-20T15:15:43.587Z,39.95
2022-11-20T15:18:09.911Z,39.79
2022-11-20T15:20:36.269Z,40.04
2022-11-20T15:23:02.618Z,40.45
2022-11-20T15:25:28.988Z,39.80
2022-11-20T15:27:55.355Z,39.92
2022-11-20T15:30:21.730Z,40.62
2022-11-20T15:32:48.427Z,39.78
2022-11-20T15:35:14.774Z,39.16
2022-11-20T15:37:41.138Z,39.78
2022-11-20T15:40:07.474Z,40.22
2022-11-20T15:42:33.791Z,39.83
2022-11-20T15:45:00.152Z,39.78
2022-11-20T15:47:26.558Z,40.11
2022-11-20T15:49:52.941Z,40.74
2022-11-20T15:52:19.260Z,40.00
2022-11-20T15:54:45.588Z,40.03
2022-11-20T15:57:11.922Z,40.21
2022-11-20T15:59:38.546Z,40.58
2022-11-20T16:02:04.937Z,40.55
2022-11-20T16:04:31.269Z,41.19
2022-11-20T16:06:57.747Z,41.47
2022-11-20T16:09:24.222Z,42.17
2022-11-20T16:11:50.572Z,41.86
2022-11-20T16:14:16.938Z,41.51
2022-11-20T16:16:43.282Z,41.93
2022-11-20T16:19:09.605Z,42.05
2022-11-20T16:21:35.926Z,40.92
2022-11-20T16:24:02.268Z,41.78
2022-11-20T16:26:28.591Z,40.99
2022-11-20T16:28:54.919Z,42.03
2022-11-20T16:31:21.336Z,41.68
2022-11-20T16:33:47.697Z,41.14
2022-11-20T16:36:14.088Z,41.28
2022-11-20T16:38:40.551Z,42.07
2022-11-20T16:41:06.988Z,41.24
2022-11-20T16:43:33.367Z,42.19
2022-11-20T16:45:59.704Z,42.15
2022-11-20T16:48:26.294Z,42.50
2022-11-20T16:50:52.800Z,42.37
2022-11-20T16:53:19.205Z,43.10
2022-11-20T16:55:45.542Z,42.56
2022-11-20T16:58:11.872Z,43.12
2022-11-20T17:00:38.244Z,43.52
2022-11-20T17:03:04.845Z,43.45
2022-11-20T17:05:31.252Z,43.59
2022-11-20T17:07:57.579Z,43.57
2022-11-20T17:10:23.977Z,44.58
2022-11-20T17:12:50.314Z,43.84
2022-11-20T17:15:16.651Z,44.26
2022-11-20T17:17:43.038Z,44.75
2022-11-20T17:20:09.465Z,44.24
2022-11-20T17:22:35.814Z,44.47
2022-11-20T17:25:02.386Z,43.60
2022-11-20T17:27:28.756Z,44.29
2022-11-20T17:29:55.208Z,44.43
2022-11-20T17:32:21.567Z,44.35
2022-11-20T17:34:47.955Z,44.49
2022-11-20T17:37:14.345Z,44.37
2022-11-20T17:39:40.732Z,44.33
2022-11-20T17:42:07.066Z,44.80
2022-11-20T17:44:33.437Z,43.09
2022-11-20T17:46:59.846Z,42.16
2022-11-20T17:49:26.230Z,43.47
2022-11-20T17:51:52.622Z,43.31
2022-11-20T17:54:18.960Z,42.35
2022-11-20T17:56:45.283Z,42.36
2022-11-20T17:59:11.645Z,41.51
2022-11-20T18:01:38.092Z,41.04
2022-11-20T18:04:04.508Z,42.01
2022-11-20T18:06:30.916Z,43.03
2022-11-20T18:08:57.267Z,43.97
2022-11-20T18:11:23.625Z,44.45
2022-11-20T18:13:50.020Z,44.91
2022-11-20T18:16:16.364Z,45.85
2022-11-20T18:18:42.738Z,44.88
2022-11-20T18:21:09.121Z,45.91
2022-11-20T18:23:35.452Z,44.43
2022-11-20T18:26:01.787Z,45.01
2022-11-20T18:28:28.146Z,44.61
2022-11-20T18:30:54.562Z,45.29
2022-11-20T18:33:25.465Z,45.36
2022-11-20T18:35:54.573Z,45.79
2022-11-20T18:38:20.916Z,46.82
2022-11-20T18:40:47.290Z,49.04
2022-11-20T18:43:13.676Z,46.45
2022-11-20T18:45:40.036Z,48.89
2022-11-20T18:48:06.422Z,47.26
2022-11-20T18:50:32.770Z,45.99
2022-11-20T18:52:59.152Z,47.79
2022-11-20T18:55:25.523Z,46.83
2022-11-20T18:57:51.916Z,48.36
2022-11-20T19:00:18.320Z,48.33
2022-11-20T19:02:45.768Z,49.54
2022-11-20T19:05:12.098Z,47.54
2022-11-20T19:07:38.499Z,48.02
2022-11-20T19:10:04.909Z,48.49
2022-11-20T19:12:31.256Z,48.78
2022-11-20T19:14:57.597Z,49.65
2022-11-20T19:17:23.918Z,49.52
2022-11-20T19:19:50.294Z,50.82
2022-11-20T19:22:16.653Z,50.52
2022-11-20T19:24:42.982Z,50.36
2022-11-20T19:27:09.370Z,49.98
2022-11-20T19:29:35.752Z,50.56
2022-11-20T19:32:02.099Z,50.37
2022-11-20T19:34:28.465Z,50.41
2022-11-20T19:36:54.839Z,50.57
2022-11-20T19:39:21.173Z,51.18
2022-11-20T19:41:47.579Z,51.40
2022-11-20T19:44:13.956Z,52.74
2022-11-20T19:46:40.375Z,52.79
2022-11-20T19:49:06.715Z,52.38
2022-11-20T19:51:33.048Z,52.50
2022-11-20T19:53:59.410Z,52.75
2022-11-20T19:56:25.746Z,52.59
2022-11-20T19:58:52.104Z,52.63
2022-11-20T20:01:18.496Z,52.38
2022-11-20T20:03:44.905Z,52.56
2022-11-20T20:06:11.280Z,52.70
2022-11-20T20:08:37.660Z,52.06
2022-11-20T20:11:04.054Z,51.77
2022-11-20T20:13:30.393Z,52.64
2022-11-20T20:15:56.768Z,53.25
2022-11-20T20:18:23.158Z,52.13
2022-11-20T20:20:49.521Z,52.45
2022-11-20T20:23:15.859Z,51.99
2022-11-20T20:25:42.182Z,52.42
2022-11-20T20:28:08.561Z,52.18
2022-11-20T20:30:34.952Z,51.98
2022-11-20T20:33:01.329Z,52.84
2022-11-20T20:35:27.729Z,53.07
2022-11-20T20:37:54.062Z,54.25
2022-11-20T20:40:20.430Z,54.03
2022-11-20T20:42:46.820Z,54.24
2022-11-20T20:45:13.192Z,54.01
2022-11-20T20:47:39.526Z,54.75
2022-11-20T20:50:05.959Z,53.53
2022-11-20T20:52:32.291Z,53.53
2022-11-20T20:54:58.664Z,53.66
2022-11-20T20:57:25.052Z,53.17
2022-11-20T20:59:51.416Z,52.75
2022-11-20T21:02:17.750Z,52.08
2022-11-20T21:04:44.121Z,53.28
2022-11-20T21:07:10.513Z,52.53
2022-11-20T21:09:36.921Z,52.20
2022-11-20T21:12:03.276Z,52.28
2022-11-20T21:14:29.660Z,52.12
2022-11-20T21:16:56.033Z,51.92
2022-11-20T21:19:22.417Z,52.76
2022-11-20T21:21:48.743Z,52.88
2022-11-20T21:24:15.104Z,52.59
2022-11-20T21:26:41.447Z,52.83
2022-11-20T21:29:07.819Z,52.75
2022-11-20T21:31:34.152Z,53.13
2022-11-20T21:34:00.469Z,52.09
2022-11-20T21:36:26.810Z,53.43
2022-11-20T21:38:53.186Z,52.87
2022-11-20T21:41:19.530Z,52.21
2022-11-20T21:43:51.572Z,52.22
2022-11-20T21:46:25.228Z,51.81
2022-11-20T21:48:51.597Z,52.46
2022-11-20T21:51:17.929Z,52.31
2022-11-20T21:53:44.255Z,52.85
2022-11-20T21:56:10.633Z,52.51
2022-11-20T21:58:37.012Z,52.66
2022-11-20T22:01:03.415Z,52.42
2022-11-20T22:03:29.825Z,52.18
2022-11-20T22:05:56.207Z,52.37
2022-11-20T22:08:22.551Z,53.21
2022-11-20T22:10:48.879Z,53.11
2022-11-20T22:13:15.244Z,53.13
2022-11-20T22:15:59.900Z,53.25
2022-11-20T22:18:26.914Z,53.14
2022-11-20T22:20:53.253Z,54.25
2022-11-20T22:23:19.597Z,53.99
2022-11-20T22:25:45.931Z,54.14
2022-11-20T22:28:12.301Z,53.70
2022-11-20T22:30:38.634Z,53.30
2022-11-20T22:33:07.769Z,53.40
2022-11-20T22:35:38.350Z,54.09
2022-11-20T22:38:04.721Z,53.19
2022-11-20T22:40:31.055Z,54.06
2022-11-20T22:42:57.416Z,54.54
2022-11-20T22:45:23.796Z,53.62
2022-11-20T22:47:50.135Z,53.60
2022-11-20T22:50:16.460Z,53.89
2022-11-20T22:52:42.836Z,53.82
2022-11-20T22:55:13.524Z,53.53
2022-11-20T22:57:42.397Z,53.70
2022-11-20T23:00:08.775Z,53.21
2022-11-20T23:02:35.122Z,52.88
2022-11-20T23:05:01.484Z,52.77
2022-11-20T23:07:27.878Z,53.26
2022-11-20T23:09:54.237Z,53.25
2022-11-20T23:12:20.559Z,53.93
2022-11-20T23:14:46.942Z,53.35
2022-11-20T23:17:13.311Z,53.88
2022-11-20T23:19:39.681Z,54.60
2022-11-20T23:22:06.030Z,53.57
2022-11-20T23:24:32.395Z,54.56
2022-11-20T23:26:58.739Z,54.21
2022-11-20T23:29:25.149Z,53.88
2022-11-20T23:31:51.560Z,54.62
2022-11-20T23:34:17.889Z,54.18
2022-11-20T23:36:44.266Z,54.31
2022-11-20T23:39:10.614Z,54.01
2022-11-20T23:41:36.935Z,53.91
2022-11-20T23:44:03.293Z,53.72
2022-11-20T23:46:29.701Z,53.95
2022-11-20T23:48:56.049Z,53.42
2022-11-20T23:51:22.446Z,53.18
2022-11-20T23:53:48.810Z,52.81
2022-11-20T23:56:15.156Z,53.22
2022-11-20T23:58:41.522Z,53.28
